sensor_id;sensor_type;location;lat;lon;timestamp;P1;durP1;ratioP1;P2;durP2;ratioP2
21202;SDS011;10759;51.982;9.232;2024-03-23T00:51:47;12.65;;;9.50;;
21202;SDS011;10759;51.982;9.232;2024-03-23T00:54:13;11.70;;;9.00;;
21202;SDS011;10759;51.982;9.232;2024-03-23T00:56:41;13.07;;;8.85;;
21202;SDS011;10759;51.982;9.232;2024-03-23T00:59:07;11.85;;;8.02;;
21202;SDS011;10759;51.982;9.232;2024-03-23T01:01:34;13.77;;;7.68;;
21202;SDS011;10759;51.982;9.232;2024-03-23T01:04:00;8.35;;;7.20;;
21202;SDS011;10759;51.982;9.232;2024-03-23T01:06:29;11.77;;;7.72;;
21202;SDS011;10759;51.982;9.232;2024-03-23T01:08:56;11.13;;;6.28;;
21202;SDS011;10759;51.982;9.232;2024-03-23T01:11:23;11.73;;;6.25;;
21202;SDS011;10759;51.982;9.232;2024-03-23T01:13:50;11.23;;;6.28;;
21202;SDS011;10759;51.982;9.232;2024-03-23T01:16:17;11.05;;;5.35;;
21202;SDS011;10759;51.982;9.232;2024-03-23T01:18:43;7.78;;;5.45;;
21202;SDS011;10759;51.982;9.232;2024-03-23T01:21:10;8.68;;;4.93;;
21202;SDS011;10759;51.982;9.232;2024-03-23T01:23:37;11.05;;;5.65;;
21202;SDS011;10759;51.982;9.232;2024-03-23T01:26:06;12.57;;;5.32;;
21202;SDS011;10759;51.982;9.232;2024-03-23T01:28:32;9.45;;;5.05;;
21202;SDS011;10759;51.982;9.232;2024-03-23T01:30:59;8.77;;;4.65;;
21202;SDS011;10759;51.982;9.232;2024-03-23T01:33:25;15.05;;;5.90;;
21202;SDS011;10759;51.982;9.232;2024-03-23T01:35:53;11.38;;;5.57;;
21202;SDS011;10759;51.982;9.232;2024-03-23T01:38:19;8.35;;;4.85;;
21202;SDS011;10759;51.982;9.232;2024-03-23T01:40:46;11.75;;;5.57;;
21202;SDS011;10759;51.982;9.232;2024-03-23T01:43:14;10.73;;;5.30;;
21202;SDS011;10759;51.982;9.232;2024-03-23T01:45:41;10.40;;;6.00;;
21202;SDS011;10759;51.982;9.232;2024-03-23T01:48:07;9.77;;;4.88;;
21202;SDS011;10759;51.982;9.232;2024-03-23T01:50:37;13.40;;;5.35;;
21202;SDS011;10759;51.982;9.232;2024-03-23T01:53:04;9.18;;;4.65;;
21202;SDS011;10759;51.982;9.232;2024-03-23T01:55:32;10.63;;;5.00;;
21202;SDS011;10759;51.982;9.232;2024-03-23T01:57:59;8.23;;;5.30;;
21202;SDS011;10759;51.982;9.232;2024-03-23T02:00:27;10.48;;;4.70;;
21202;SDS011;10759;51.982;9.232;2024-03-23T02:02:53;11.18;;;5.20;;
21202;SDS011;10759;51.982;9.232;2024-03-23T02:05:21;14.98;;;5.68;;
21202;SDS011;10759;51.982;9.232;2024-03-23T02:07:47;12.32;;;5.05;;
21202;SDS011;10759;51.982;9.232;2024-03-23T02:10:15;12.45;;;5.47;;
21202;SDS011;10759;51.982;9.232;2024-03-23T02:12:41;12.13;;;5.88;;
21202;SDS011;10759;51.982;9.232;2024-03-23T02:15:08;8.52;;;5.35;;
21202;SDS011;10759;51.982;9.232;2024-03-23T02:17:36;9.32;;;5.25;;
21202;SDS011;10759;51.982;9.232;2024-03-23T02:20:04;12.13;;;6.07;;
21202;SDS011;10759;51.982;9.232;2024-03-23T02:22:35;13.82;;;6.60;;
21202;SDS011;10759;51.982;9.232;2024-03-23T02:25:05;8.50;;;4.80;;
21202;SDS011;10759;51.982;9.232;2024-03-23T02:27:32;8.77;;;4.95;;
21202;SDS011;10759;51.982;9.232;2024-03-23T02:30:00;12.07;;;6.32;;
21202;SDS011;10759;51.982;9.232;2024-03-23T02:32:27;11.20;;;4.68;;
21202;SDS011;10759;51.982;9.232;2024-03-23T02:34:54;10.13;;;5.88;;
21202;SDS011;10759;51.982;9.232;2024-03-23T02:37:20;11.68;;;5.00;;
21202;SDS011;10759;51.982;9.232;2024-03-23T02:39:48;12.75;;;5.18;;
21202;SDS011;10759;51.982;9.232;2024-03-23T02:42:16;7.88;;;4.35;;
21202;SDS011;10759;51.982;9.232;2024-03-23T02:44:43;9.48;;;4.72;;
21202;SDS011;10759;51.982;9.232;2024-03-23T02:47:10;10.65;;;5.07;;
21202;SDS011;10759;51.982;9.232;2024-03-23T02:49:37;9.43;;;4.40;;
21202;SDS011;10759;51.982;9.232;2024-03-23T02:52:03;11.65;;;4.40;;
21202;SDS011;10759;51.982;9.232;2024-03-23T02:54:30;9.45;;;5.13;;
21202;SDS011;10759;51.982;9.232;2024-03-23T02:56:56;10.57;;;4.13;;
21202;SDS011;10759;51.982;9.232;2024-03-23T02:59:25;7.45;;;4.07;;
21202;SDS011;10759;51.982;9.232;2024-03-23T03:01:51;8.32;;;4.63;;
21202;SDS011;10759;51.982;9.232;2024-03-23T03:04:18;11.63;;;4.63;;
21202;SDS011;10759;51.982;9.232;2024-03-23T03:06:46;9.80;;;4.43;;
21202;SDS011;10759;51.982;9.232;2024-03-23T03:09:14;13.23;;;5.67;;
21202;SDS011;10759;51.982;9.232;2024-03-23T03:11:41;9.63;;;5.18;;
21202;SDS011;10759;51.982;9.232;2024-03-23T03:14:08;9.23;;;6.28;;
21202;SDS011;10759;51.982;9.232;2024-03-23T03:16:35;11.65;;;5.85;;
21202;SDS011;10759;51.982;9.232;2024-03-23T03:19:02;13.10;;;5.60;;
21202;SDS011;10759;51.982;9.232;2024-03-23T03:21:29;11.85;;;5.50;;
21202;SDS011;10759;51.982;9.232;2024-03-23T03:23:56;10.80;;;5.60;;
21202;SDS011;10759;51.982;9.232;2024-03-23T03:26:22;11.25;;;5.53;;
21202;SDS011;10759;51.982;9.232;2024-03-23T03:28:50;10.18;;;5.50;;
21202;SDS011;10759;51.982;9.232;2024-03-23T03:31:17;10.57;;;5.97;;
21202;SDS011;10759;51.982;9.232;2024-03-23T03:33:46;11.00;;;5.88;;
21202;SDS011;10759;51.982;9.232;2024-03-23T03:36:13;7.90;;;5.07;;
21202;SDS011;10759;51.982;9.232;2024-03-23T03:38:40;9.35;;;5.10;;
21202;SDS011;10759;51.982;9.232;2024-03-23T03:41:07;8.25;;;4.57;;
21202;SDS011;10759;51.982;9.232;2024-03-23T03:43:33;9.40;;;5.72;;
21202;SDS011;10759;51.982;9.232;2024-03-23T03:46:00;10.18;;;4.95;;
21202;SDS011;10759;51.982;9.232;2024-03-23T03:48:28;8.45;;;4.97;;
21202;SDS011;10759;51.982;9.232;2024-03-23T03:50:57;11.10;;;4.82;;
21202;SDS011;10759;51.982;9.232;2024-03-23T03:53:23;6.90;;;4.00;;
21202;SDS011;10759;51.982;9.232;2024-03-23T03:55:51;6.10;;;3.97;;
21202;SDS011;10759;51.982;9.232;2024-03-23T03:58:17;7.50;;;3.67;;
21202;SDS011;10759;51.982;9.232;2024-03-23T04:00:44;8.32;;;3.65;;
21202;SDS011;10759;51.982;9.232;2024-03-23T04:03:10;6.45;;;3.67;;
21202;SDS011;10759;51.982;9.232;2024-03-23T04:05:37;7.57;;;3.55;;
21202;SDS011;10759;51.982;9.232;2024-03-23T04:08:05;6.25;;;3.65;;
21202;SDS011;10759;51.982;9.232;2024-03-23T04:10:34;7.20;;;3.75;;
21202;SDS011;10759;51.982;9.232;2024-03-23T04:13:00;7.30;;;3.50;;
21202;SDS011;10759;51.982;9.232;2024-03-23T04:15:30;6.10;;;3.17;;
21202;SDS011;10759;51.982;9.232;2024-03-23T04:17:56;5.18;;;3.30;;
21202;SDS011;10759;51.982;9.232;2024-03-23T04:20:24;8.77;;;3.40;;
21202;SDS011;10759;51.982;9.232;2024-03-23T04:22:50;6.72;;;3.30;;
21202;SDS011;10759;51.982;9.232;2024-03-23T04:25:19;5.07;;;3.15;;
21202;SDS011;10759;51.982;9.232;2024-03-23T04:27:45;6.47;;;2.92;;
21202;SDS011;10759;51.982;9.232;2024-03-23T04:30:13;6.68;;;3.42;;
21202;SDS011;10759;51.982;9.232;2024-03-23T04:32:39;5.55;;;2.83;;
21202;SDS011;10759;51.982;9.232;2024-03-23T04:35:07;7.80;;;3.47;;
21202;SDS011;10759;51.982;9.232;2024-03-23T04:37:35;9.23;;;3.05;;
21202;SDS011;10759;51.982;9.232;2024-03-23T04:40:02;6.05;;;3.38;;
21202;SDS011;10759;51.982;9.232;2024-03-23T04:42:31;9.65;;;3.28;;
21202;SDS011;10759;51.982;9.232;2024-03-23T04:44:58;5.07;;;2.90;;
21202;SDS011;10759;51.982;9.232;2024-03-23T04:47:26;6.97;;;3.03;;
21202;SDS011;10759;51.982;9.232;2024-03-23T04:49:54;7.20;;;3.28;;
21202;SDS011;10759;51.982;9.232;2024-03-23T04:52:21;6.18;;;3.10;;
21202;SDS011;10759;51.982;9.232;2024-03-23T04:54:47;6.05;;;3.28;;
21202;SDS011;10759;51.982;9.232;2024-03-23T04:57:14;5.78;;;3.60;;
21202;SDS011;10759;51.982;9.232;2024-03-23T04:59:47;8.18;;;3.40;;
21202;SDS011;10759;51.982;9.232;2024-03-23T05:02:13;8.50;;;3.80;;
21202;SDS011;10759;51.982;9.232;2024-03-23T05:04:41;5.60;;;3.05;;
21202;SDS011;10759;51.982;9.232;2024-03-23T05:07:07;5.70;;;2.92;;
21202;SDS011;10759;51.982;9.232;2024-03-23T05:09:35;5.78;;;2.90;;
21202;SDS011;10759;51.982;9.232;2024-03-23T05:12:01;6.60;;;2.85;;
21202;SDS011;10759;51.982;9.232;2024-03-23T05:14:29;6.43;;;3.10;;
21202;SDS011;10759;51.982;9.232;2024-03-23T05:16:57;7.35;;;2.72;;
21202;SDS011;10759;51.982;9.232;2024-03-23T05:19:24;4.82;;;2.80;;
21202;SDS011;10759;51.982;9.232;2024-03-23T05:21:50;9.48;;;3.22;;
21202;SDS011;10759;51.982;9.232;2024-03-23T05:24:18;7.25;;;3.47;;
21202;SDS011;10759;51.982;9.232;2024-03-23T05:26:44;5.60;;;3.10;;
21202;SDS011;10759;51.982;9.232;2024-03-23T05:29:12;5.40;;;2.85;;
21202;SDS011;10759;51.982;9.232;2024-03-23T05:31:39;6.80;;;2.95;;
21202;SDS011;10759;51.982;9.232;2024-03-23T05:34:08;4.38;;;2.35;;
21202;SDS011;10759;51.982;9.232;2024-03-23T05:36:35;6.93;;;3.15;;
21202;SDS011;10759;51.982;9.232;2024-03-23T05:39:03;6.63;;;3.15;;
21202;SDS011;10759;51.982;9.232;2024-03-23T05:41:29;5.47;;;2.92;;
21202;SDS011;10759;51.982;9.232;2024-03-23T05:43:56;6.60;;;2.92;;
21202;SDS011;10759;51.982;9.232;2024-03-23T05:46:22;5.55;;;3.03;;
21202;SDS011;10759;51.982;9.232;2024-03-23T05:48:50;7.75;;;2.85;;
21202;SDS011;10759;51.982;9.232;2024-03-23T05:51:26;5.82;;;3.00;;
21202;SDS011;10759;51.982;9.232;2024-03-23T05:53:54;5.40;;;2.58;;
21202;SDS011;10759;51.982;9.232;2024-03-23T05:56:20;5.13;;;3.22;;
21202;SDS011;10759;51.982;9.232;2024-03-23T05:58:47;6.18;;;2.50;;
21202;SDS011;10759;51.982;9.232;2024-03-23T06:01:14;4.15;;;3.00;;
21202;SDS011;10759;51.982;9.232;2024-03-23T06:03:41;4.00;;;2.00;;
21202;SDS011;10759;51.982;9.232;2024-03-23T06:06:09;5.28;;;2.80;;
21202;SDS011;10759;51.982;9.232;2024-03-23T06:08:39;7.65;;;3.67;;
21202;SDS011;10759;51.982;9.232;2024-03-23T06:11:06;5.03;;;3.20;;
21202;SDS011;10759;51.982;9.232;2024-03-23T06:13:33;7.22;;;3.65;;
21202;SDS011;10759;51.982;9.232;2024-03-23T06:16:00;11.15;;;4.40;;
21202;SDS011;10759;51.982;9.232;2024-03-23T06:18:27;7.03;;;3.55;;
21202;SDS011;10759;51.982;9.232;2024-03-23T06:20:54;8.02;;;4.50;;
21202;SDS011;10759;51.982;9.232;2024-03-23T06:23:20;5.65;;;3.78;;
21202;SDS011;10759;51.982;9.232;2024-03-23T06:25:49;6.40;;;3.80;;
21202;SDS011;10759;51.982;9.232;2024-03-23T06:28:15;8.73;;;3.15;;
21202;SDS011;10759;51.982;9.232;2024-03-23T06:30:43;6.50;;;3.10;;
21202;SDS011;10759;51.982;9.232;2024-03-23T06:33:09;7.45;;;3.47;;
21202;SDS011;10759;51.982;9.232;2024-03-23T06:35:37;5.32;;;3.67;;
21202;SDS011;10759;51.982;9.232;2024-03-23T06:38:03;7.13;;;3.70;;
21202;SDS011;10759;51.982;9.232;2024-03-23T06:40:30;5.28;;;3.13;;
21202;SDS011;10759;51.982;9.232;2024-03-23T06:42:58;5.07;;;3.15;;
21202;SDS011;10759;51.982;9.232;2024-03-23T06:45:26;3.88;;;2.70;;
21202;SDS011;10759;51.982;9.232;2024-03-23T06:47:52;5.63;;;2.88;;
21202;SDS011;10759;51.982;9.232;2024-03-23T06:50:21;8.60;;;3.50;;
21202;SDS011;10759;51.982;9.232;2024-03-23T06:52:49;8.82;;;3.13;;
21202;SDS011;10759;51.982;9.232;2024-03-23T06:55:16;5.25;;;2.60;;
21202;SDS011;10759;51.982;9.232;2024-03-23T06:57:43;5.68;;;2.60;;
21202;SDS011;10759;51.982;9.232;2024-03-23T07:00:12;5.97;;;2.95;;
21202;SDS011;10759;51.982;9.232;2024-03-23T07:02:41;7.97;;;3.33;;
21202;SDS011;10759;51.982;9.232;2024-03-23T07:05:10;5.78;;;3.10;;
21202;SDS011;10759;51.982;9.232;2024-03-23T07:07:37;4.90;;;2.47;;
21202;SDS011;10759;51.982;9.232;2024-03-23T07:10:06;8.50;;;2.55;;
21202;SDS011;10759;51.982;9.232;2024-03-23T07:12:32;7.60;;;2.90;;
21202;SDS011;10759;51.982;9.232;2024-03-23T07:14:59;7.43;;;2.80;;
21202;SDS011;10759;51.982;9.232;2024-03-23T07:17:27;8.85;;;3.17;;
21202;SDS011;10759;51.982;9.232;2024-03-23T07:19:54;8.23;;;2.90;;
21202;SDS011;10759;51.982;9.232;2024-03-23T07:22:20;8.32;;;3.35;;
21202;SDS011;10759;51.982;9.232;2024-03-23T07:24:47;11.20;;;3.70;;
21202;SDS011;10759;51.982;9.232;2024-03-23T07:27:13;9.27;;;3.53;;
21202;SDS011;10759;51.982;9.232;2024-03-23T07:29:40;7.78;;;3.38;;
21202;SDS011;10759;51.982;9.232;2024-03-23T07:32:06;11.40;;;4.07;;
21202;SDS011;10759;51.982;9.232;2024-03-23T07:34:35;9.15;;;4.35;;
21202;SDS011;10759;51.982;9.232;2024-03-23T07:37:01;9.30;;;4.53;;
21202;SDS011;10759;51.982;9.232;2024-03-23T07:39:28;9.48;;;4.43;;
21202;SDS011;10759;51.982;9.232;2024-03-23T07:41:55;8.38;;;4.10;;
21202;SDS011;10759;51.982;9.232;2024-03-23T07:44:22;14.32;;;5.70;;
21202;SDS011;10759;51.982;9.232;2024-03-23T07:46:48;8.52;;;5.05;;
21202;SDS011;10759;51.982;9.232;2024-03-23T07:49:15;14.13;;;5.25;;
21202;SDS011;10759;51.982;9.232;2024-03-23T07:51:43;11.07;;;5.38;;
21202;SDS011;10759;51.982;9.232;2024-03-23T07:54:10;16.10;;;6.70;;
21202;SDS011;10759;51.982;9.232;2024-03-23T07:56:37;16.40;;;6.53;;
21202;SDS011;10759;51.982;9.232;2024-03-23T07:59:04;10.63;;;6.18;;
21202;SDS011;10759;51.982;9.232;2024-03-23T08:01:30;14.77;;;7.78;;
21202;SDS011;10759;51.982;9.232;2024-03-23T08:03:58;15.40;;;6.50;;
21202;SDS011;10759;51.982;9.232;2024-03-23T08:06:25;14.32;;;6.95;;
21202;SDS011;10759;51.982;9.232;2024-03-23T08:08:54;14.05;;;6.75;;
21202;SDS011;10759;51.982;9.232;2024-03-23T08:11:25;15.60;;;7.13;;
21202;SDS011;10759;51.982;9.232;2024-03-23T08:13:52;15.70;;;8.10;;
21202;SDS011;10759;51.982;9.232;2024-03-23T08:16:18;13.93;;;7.57;;
21202;SDS011;10759;51.982;9.232;2024-03-23T08:18:46;12.45;;;7.10;;
21202;SDS011;10759;51.982;9.232;2024-03-23T08:21:12;16.55;;;8.75;;
21202;SDS011;10759;51.982;9.232;2024-03-23T08:23:39;12.32;;;7.97;;
21202;SDS011;10759;51.982;9.232;2024-03-23T08:26:07;15.15;;;8.48;;
21202;SDS011;10759;51.982;9.232;2024-03-23T08:28:35;18.63;;;9.27;;
21202;SDS011;10759;51.982;9.232;2024-03-23T08:31:04;15.32;;;9.15;;
21202;SDS011;10759;51.982;9.232;2024-03-23T08:33:32;14.82;;;9.27;;
21202;SDS011;10759;51.982;9.232;2024-03-23T08:35:59;15.15;;;8.68;;
21202;SDS011;10759;51.982;9.232;2024-03-23T08:38:27;18.63;;;9.95;;
21202;SDS011;10759;51.982;9.232;2024-03-23T08:40:57;14.38;;;8.23;;
21202;SDS011;10759;51.982;9.232;2024-03-23T08:43:26;16.05;;;9.43;;
21202;SDS011;10759;51.982;9.232;2024-03-23T08:45:53;17.98;;;9.07;;
21202;SDS011;10759;51.982;9.232;2024-03-23T08:48:20;15.85;;;8.55;;
21202;SDS011;10759;51.982;9.232;2024-03-23T08:50:46;20.05;;;8.30;;
21202;SDS011;10759;51.982;9.232;2024-03-23T08:53:14;13.23;;;8.77;;
21202;SDS011;10759;51.982;9.232;2024-03-23T08:55:40;13.55;;;8.35;;
21202;SDS011;10759;51.982;9.232;2024-03-23T08:58:08;13.48;;;7.78;;
21202;SDS011;10759;51.982;9.232;2024-03-23T09:00:36;12.00;;;7.60;;
21202;SDS011;10759;51.982;9.232;2024-03-23T09:03:04;17.98;;;8.20;;
21202;SDS011;10759;51.982;9.232;2024-03-23T09:05:31;17.48;;;8.10;;
21202;SDS011;10759;51.982;9.232;2024-03-23T09:08:01;19.05;;;8.05;;
21202;SDS011;10759;51.982;9.232;2024-03-23T09:10:28;13.85;;;6.93;;
21202;SDS011;10759;51.982;9.232;2024-03-23T09:12:55;17.20;;;7.53;;
21202;SDS011;10759;51.982;9.232;2024-03-23T09:15:21;16.17;;;8.05;;
21202;SDS011;10759;51.982;9.232;2024-03-23T09:17:50;16.38;;;8.27;;
21202;SDS011;10759;51.982;9.232;2024-03-23T09:20:16;15.23;;;7.68;;
21202;SDS011;10759;51.982;9.232;2024-03-23T09:22:43;14.60;;;6.20;;
21202;SDS011;10759;51.982;9.232;2024-03-23T09:25:09;15.32;;;6.10;;
21202;SDS011;10759;51.982;9.232;2024-03-23T09:27:36;15.80;;;6.15;;
21202;SDS011;10759;51.982;9.232;2024-03-23T09:30:03;10.48;;;5.60;;
21202;SDS011;10759;51.982;9.232;2024-03-23T09:32:31;14.55;;;7.22;;
21202;SDS011;10759;51.982;9.232;2024-03-23T09:34:59;12.77;;;6.03;;
21202;SDS011;10759;51.982;9.232;2024-03-23T09:37:26;12.40;;;5.78;;
21202;SDS011;10759;51.982;9.232;2024-03-23T09:39:52;15.32;;;5.85;;
21202;SDS011;10759;51.982;9.232;2024-03-23T09:42:19;11.93;;;6.20;;
21202;SDS011;10759;51.982;9.232;2024-03-23T09:44:46;15.15;;;5.95;;
21202;SDS011;10759;51.982;9.232;2024-03-23T09:47:15;12.68;;;6.35;;
21202;SDS011;10759;51.982;9.232;2024-03-23T09:49:41;12.43;;;5.30;;
21202;SDS011;10759;51.982;9.232;2024-03-23T09:52:10;15.20;;;6.95;;
21202;SDS011;10759;51.982;9.232;2024-03-23T09:54:36;13.20;;;6.78;;
21202;SDS011;10759;51.982;9.232;2024-03-23T09:57:04;11.05;;;6.60;;
21202;SDS011;10759;51.982;9.232;2024-03-23T09:59:32;12.65;;;7.38;;
21202;SDS011;10759;51.982;9.232;2024-03-23T10:02:00;13.68;;;5.85;;
21202;SDS011;10759;51.982;9.232;2024-03-23T10:04:36;8.45;;;5.70;;
21202;SDS011;10759;51.982;9.232;2024-03-23T10:07:11;13.82;;;5.25;;
21202;SDS011;10759;51.982;9.232;2024-03-23T10:09:38;14.07;;;6.57;;
21202;SDS011;10759;51.982;9.232;2024-03-23T10:12:10;13.18;;;5.70;;
21202;SDS011;10759;51.982;9.232;2024-03-23T10:14:37;10.23;;;5.15;;
21202;SDS011;10759;51.982;9.232;2024-03-23T10:17:11;12.88;;;5.60;;
21202;SDS011;10759;51.982;9.232;2024-03-23T10:19:44;9.77;;;4.93;;
21202;SDS011;10759;51.982;9.232;2024-03-23T10:22:14;8.50;;;5.38;;
21202;SDS011;10759;51.982;9.232;2024-03-23T10:24:42;11.32;;;5.25;;
21202;SDS011;10759;51.982;9.232;2024-03-23T10:27:12;7.72;;;3.83;;
21202;SDS011;10759;51.982;9.232;2024-03-23T10:29:41;8.50;;;4.97;;
21202;SDS011;10759;51.982;9.232;2024-03-23T10:32:09;11.32;;;5.07;;
21202;SDS011;10759;51.982;9.232;2024-03-23T10:34:35;11.02;;;6.18;;
21202;SDS011;10759;51.982;9.232;2024-03-23T10:37:03;7.32;;;5.40;;
21202;SDS011;10759;51.982;9.232;2024-03-23T10:39:35;12.40;;;5.53;;
21202;SDS011;10759;51.982;9.232;2024-03-23T10:42:04;6.70;;;5.07;;
21202;SDS011;10759;51.982;9.232;2024-03-23T10:44:31;7.78;;;5.13;;
21202;SDS011;10759;51.982;9.232;2024-03-23T10:46:59;9.02;;;4.47;;
21202;SDS011;10759;51.982;9.232;2024-03-23T10:49:28;9.45;;;4.30;;
21202;SDS011;10759;51.982;9.232;2024-03-23T10:51:56;7.70;;;4.03;;
21202;SDS011;10759;51.982;9.232;2024-03-23T10:54:24;6.00;;;3.88;;
21202;SDS011;10759;51.982;9.232;2024-03-23T10:56:53;9.30;;;4.30;;
21202;SDS011;10759;51.982;9.232;2024-03-23T10:59:24;5.68;;;3.60;;
21202;SDS011;10759;51.982;9.232;2024-03-23T11:01:54;9.68;;;3.63;;
21202;SDS011;10759;51.982;9.232;2024-03-23T11:04:29;11.05;;;4.93;;
21202;SDS011;10759;51.982;9.232;2024-03-23T11:06:57;9.40;;;4.30;;
21202;SDS011;10759;51.982;9.232;2024-03-23T11:09:40;9.85;;;3.90;;
21202;SDS011;10759;51.982;9.232;2024-03-23T11:12:27;7.80;;;3.75;;
21202;SDS011;10759;51.982;9.232;2024-03-23T11:14:58;6.57;;;3.80;;
21202;SDS011;10759;51.982;9.232;2024-03-23T11:17:27;5.95;;;3.50;;
21202;SDS011;10759;51.982;9.232;2024-03-23T11:19:55;6.63;;;2.92;;
21202;SDS011;10759;51.982;9.232;2024-03-23T11:25:16;8.45;;;3.53;;
21202;SDS011;10759;51.982;9.232;2024-03-23T11:27:45;6.43;;;3.75;;
21202;SDS011;10759;51.982;9.232;2024-03-23T11:30:12;6.97;;;4.07;;
21202;SDS011;10759;51.982;9.232;2024-03-23T11:32:40;9.40;;;3.90;;
21202;SDS011;10759;51.982;9.232;2024-03-23T11:35:08;8.52;;;4.40;;
21202;SDS011;10759;51.982;9.232;2024-03-23T11:37:36;7.50;;;4.57;;
21202;SDS011;10759;51.982;9.232;2024-03-23T11:40:19;8.63;;;3.45;;
21202;SDS011;10759;51.982;9.232;2024-03-23T11:42:47;8.20;;;3.25;;
21202;SDS011;10759;51.982;9.232;2024-03-23T11:45:22;5.53;;;2.97;;
21202;SDS011;10759;51.982;9.232;2024-03-23T11:47:48;7.07;;;3.03;;
21202;SDS011;10759;51.982;9.232;2024-03-23T11:50:19;5.38;;;2.80;;
21202;SDS011;10759;51.982;9.232;2024-03-23T11:55:13;4.28;;;2.25;;
21202;SDS011;10759;51.982;9.232;2024-03-23T11:57:39;4.80;;;2.35;;
21202;SDS011;10759;51.982;9.232;2024-03-23T12:00:21;8.00;;;2.55;;
21202;SDS011;10759;51.982;9.232;2024-03-23T12:02:48;4.10;;;2.47;;
21202;SDS011;10759;51.982;9.232;2024-03-23T12:05:16;6.57;;;2.13;;
21202;SDS011;10759;51.982;9.232;2024-03-23T12:07:43;7.72;;;3.08;;
21202;SDS011;10759;51.982;9.232;2024-03-23T12:10:10;2.70;;;2.25;;
21202;SDS011;10759;51.982;9.232;2024-03-23T12:12:36;3.22;;;2.03;;
21202;SDS011;10759;51.982;9.232;2024-03-23T12:15:04;4.32;;;2.60;;
21202;SDS011;10759;51.982;9.232;2024-03-23T12:17:34;7.22;;;2.97;;
21202;SDS011;10759;51.982;9.232;2024-03-23T12:20:02;6.50;;;2.63;;
21202;SDS011;10759;51.982;9.232;2024-03-23T12:22:29;5.28;;;3.00;;
21202;SDS011;10759;51.982;9.232;2024-03-23T12:24:57;5.72;;;2.47;;
21202;SDS011;10759;51.982;9.232;2024-03-23T12:27:23;5.95;;;2.15;;
21202;SDS011;10759;51.982;9.232;2024-03-23T12:29:50;1.40;;;1.00;;
21202;SDS011;10759;51.982;9.232;2024-03-23T12:32:16;2.75;;;1.38;;
21202;SDS011;10759;51.982;9.232;2024-03-23T12:34:45;1.52;;;1.10;;
21202;SDS011;10759;51.982;9.232;2024-03-23T12:37:12;3.70;;;1.10;;
21202;SDS011;10759;51.982;9.232;2024-03-23T12:39:41;2.70;;;1.20;;
21202;SDS011;10759;51.982;9.232;2024-03-23T12:42:07;2.08;;;1.65;;
21202;SDS011;10759;51.982;9.232;2024-03-23T12:44:35;5.90;;;2.10;;
21202;SDS011;10759;51.982;9.232;2024-03-23T12:47:01;4.10;;;2.17;;
21202;SDS011;10759;51.982;9.232;2024-03-23T12:49:29;4.30;;;2.13;;
21202;SDS011;10759;51.982;9.232;2024-03-23T12:51:56;4.80;;;2.10;;
21202;SDS011;10759;51.982;9.232;2024-03-23T12:54:24;2.47;;;1.90;;
21202;SDS011;10759;51.982;9.232;2024-03-23T12:56:51;4.15;;;2.38;;
21202;SDS011;10759;51.982;9.232;2024-03-23T12:59:18;5.57;;;2.15;;
21202;SDS011;10759;51.982;9.232;2024-03-23T13:01:44;5.38;;;2.10;;
21202;SDS011;10759;51.982;9.232;2024-03-23T13:04:12;7.20;;;2.17;;
21202;SDS011;10759;51.982;9.232;2024-03-23T13:06:38;3.00;;;1.98;;
21202;SDS011;10759;51.982;9.232;2024-03-23T13:09:06;2.50;;;2.20;;
21202;SDS011;10759;51.982;9.232;2024-03-23T13:11:33;5.15;;;2.67;;
21202;SDS011;10759;51.982;9.232;2024-03-23T13:14:00;4.80;;;2.78;;
21202;SDS011;10759;51.982;9.232;2024-03-23T13:16:26;4.43;;;2.95;;
21202;SDS011;10759;51.982;9.232;2024-03-23T13:18:53;7.15;;;4.20;;
21202;SDS011;10759;51.982;9.232;2024-03-23T13:21:20;6.50;;;5.13;;
21202;SDS011;10759;51.982;9.232;2024-03-23T13:23:47;4.82;;;3.30;;
21202;SDS011;10759;51.982;9.232;2024-03-23T13:26:17;6.13;;;3.97;;
21202;SDS011;10759;51.982;9.232;2024-03-23T13:28:44;7.53;;;3.83;;
21202;SDS011;10759;51.982;9.232;2024-03-23T13:31:10;5.75;;;3.92;;
21202;SDS011;10759;51.982;9.232;2024-03-23T13:33:37;6.45;;;5.40;;
21202;SDS011;10759;51.982;9.232;2024-03-23T13:36:04;6.13;;;3.22;;
21202;SDS011;10759;51.982;9.232;2024-03-23T13:38:32;2.33;;;1.65;;
21202;SDS011;10759;51.982;9.232;2024-03-23T13:40:58;2.05;;;1.45;;
21202;SDS011;10759;51.982;9.232;2024-03-23T13:43:27;4.35;;;1.98;;
21202;SDS011;10759;51.982;9.232;2024-03-23T13:45:54;2.95;;;1.65;;
21202;SDS011;10759;51.982;9.232;2024-03-23T13:48:23;4.88;;;2.17;;
21202;SDS011;10759;51.982;9.232;2024-03-23T13:50:56;3.20;;;2.00;;
21202;SDS011;10759;51.982;9.232;2024-03-23T13:53:24;4.05;;;1.98;;
21202;SDS011;10759;51.982;9.232;2024-03-23T13:55:50;3.67;;;1.65;;
21202;SDS011;10759;51.982;9.232;2024-03-23T13:58:18;3.42;;;1.70;;
21202;SDS011;10759;51.982;9.232;2024-03-23T14:00:46;2.90;;;1.80;;
21202;SDS011;10759;51.982;9.232;2024-03-23T14:03:13;3.72;;;1.83;;
21202;SDS011;10759;51.982;9.232;2024-03-23T14:05:40;4.18;;;1.83;;
21202;SDS011;10759;51.982;9.232;2024-03-23T14:08:08;3.33;;;2.58;;
21202;SDS011;10759;51.982;9.232;2024-03-23T14:10:35;2.67;;;1.60;;
21202;SDS011;10759;51.982;9.232;2024-03-23T14:13:03;3.97;;;1.80;;
21202;SDS011;10759;51.982;9.232;2024-03-23T14:15:29;3.00;;;2.00;;
21202;SDS011;10759;51.982;9.232;2024-03-23T14:17:59;3.13;;;1.90;;
21202;SDS011;10759;51.982;9.232;2024-03-23T14:20:25;2.42;;;1.52;;
21202;SDS011;10759;51.982;9.232;2024-03-23T14:22:53;2.30;;;1.75;;
21202;SDS011;10759;51.982;9.232;2024-03-23T14:25:19;2.17;;;1.40;;
21202;SDS011;10759;51.982;9.232;2024-03-23T14:27:49;1.25;;;1.00;;
21202;SDS011;10759;51.982;9.232;2024-03-23T14:30:15;1.58;;;1.48;;
21202;SDS011;10759;51.982;9.232;2024-03-23T14:32:43;3.13;;;1.75;;
21202;SDS011;10759;51.982;9.232;2024-03-23T14:35:10;1.60;;;1.50;;
21202;SDS011;10759;51.982;9.232;2024-03-23T14:37:37;2.47;;;2.28;;
21202;SDS011;10759;51.982;9.232;2024-03-23T14:40:04;3.90;;;3.05;;
21202;SDS011;10759;51.982;9.232;2024-03-23T14:42:32;3.85;;;1.90;;
21202;SDS011;10759;51.982;9.232;2024-03-23T14:44:58;1.92;;;1.65;;
21202;SDS011;10759;51.982;9.232;2024-03-23T14:47:25;2.42;;;1.80;;
21202;SDS011;10759;51.982;9.232;2024-03-23T14:49:52;2.55;;;1.80;;
21202;SDS011;10759;51.982;9.232;2024-03-23T14:52:20;2.28;;;1.77;;
21202;SDS011;10759;51.982;9.232;2024-03-23T14:54:47;3.53;;;1.33;;
21202;SDS011;10759;51.982;9.232;2024-03-23T14:57:14;2.85;;;1.75;;
21202;SDS011;10759;51.982;9.232;2024-03-23T14:59:41;3.58;;;2.30;;
21202;SDS011;10759;51.982;9.232;2024-03-23T15:02:08;3.45;;;1.75;;
21202;SDS011;10759;51.982;9.232;2024-03-23T15:04:35;2.45;;;1.50;;
21202;SDS011;10759;51.982;9.232;2024-03-23T15:07:02;2.40;;;1.80;;
21202;SDS011;10759;51.982;9.232;2024-03-23T15:09:31;3.15;;;1.67;;
21202;SDS011;10759;51.982;9.232;2024-03-23T15:11:58;4.53;;;2.70;;
21202;SDS011;10759;51.982;9.232;2024-03-23T15:14:25;3.35;;;1.80;;
21202;SDS011;10759;51.982;9.232;2024-03-23T15:16:51;4.55;;;2.20;;
21202;SDS011;10759;51.982;9.232;2024-03-23T15:19:19;5.53;;;2.22;;
21202;SDS011;10759;51.982;9.232;2024-03-23T15:21:47;4.47;;;2.38;;
21202;SDS011;10759;51.982;9.232;2024-03-23T15:24:13;2.53;;;1.63;;
21202;SDS011;10759;51.982;9.232;2024-03-23T15:26:42;1.13;;;0.98;;
21202;SDS011;10759;51.982;9.232;2024-03-23T15:29:09;2.08;;;1.10;;
21202;SDS011;10759;51.982;9.232;2024-03-23T15:31:38;3.30;;;1.75;;
21202;SDS011;10759;51.982;9.232;2024-03-23T15:34:04;2.15;;;1.77;;
21202;SDS011;10759;51.982;9.232;2024-03-23T15:36:35;4.50;;;3.75;;
21202;SDS011;10759;51.982;9.232;2024-03-23T15:39:04;1.65;;;1.20;;
21202;SDS011;10759;51.982;9.232;2024-03-23T15:41:31;19.58;;;11.15;;